sensor_id;sensor_type;location;lat;lon;timestamp;temperature;humidity
34985;DHT22;21190;58.750;17.004;2024-01-27T00:02:09;1.20;99.90
34985;DHT22;21190;58.750;17.004;2024-01-27T00:04:36;1.20;99.90
34985;DHT22;21190;58.750;17.004;2024-01-27T00:07:04;1.20;99.90
34985;DHT22;21190;58.750;17.004;2024-01-27T00:09:31;1.20;99.90
34985;DHT22;21190;58.750;17.004;2024-01-27T00:11:59;1.20;99.90
34985;DHT22;21190;58.750;17.004;2024-01-27T00:14:27;1.10;99.90
34985;DHT22;21190;58.750;17.004;2024-01-27T00:16:54;1.10;99.90
34985;DHT22;21190;58.750;17.004;2024-01-27T00:19:21;1.20;99.90
34985;DHT22;21190;58.750;17.004;2024-01-27T00:21:49;1.10;99.90
34985;DHT22;21190;58.750;17.004;2024-01-27T00:24:16;1.10;99.90
34985;DHT22;21190;58.750;17.004;2024-01-27T00:26:44;1.10;99.90
34985;DHT22;21190;58.750;17.004;2024-01-27T00:29:12;1.00;99.90
34985;DHT22;21190;58.750;17.004;2024-01-27T00:31:39;1.00;99.90
34985;DHT22;21190;58.750;17.004;2024-01-27T00:34:06;1.00;99.90
34985;DHT22;21190;58.750;17.004;2024-01-27T00:36:34;1.00;99.90
34985;DHT22;21190;58.750;17.004;2024-01-27T00:39:04;1.00;99.90
34985;DHT22;21190;58.750;17.004;2024-01-27T00:41:32;1.10;99.90
34985;DHT22;21190;58.750;17.004;2024-01-27T00:43:59;1.10;99.90
34985;DHT22;21190;58.750;17.004;2024-01-27T00:46:26;1.00;99.90
34985;DHT22;21190;58.750;17.004;2024-01-27T00:48:53;1.00;99.90
34985;DHT22;21190;58.750;17.004;2024-01-27T00:51:20;1.10;99.90
34985;DHT22;21190;58.750;17.004;2024-01-27T00:53:48;1.10;99.90
34985;DHT22;21190;58.750;17.004;2024-01-27T00:56:15;1.00;99.90
34985;DHT22;21190;58.750;17.004;2024-01-27T00:58:42;1.10;99.90
34985;DHT22;21190;58.750;17.004;2024-01-27T01:01:09;1.10;99.90
34985;DHT22;21190;58.750;17.004;2024-01-27T01:03:37;1.10;99.90
34985;DHT22;21190;58.750;17.004;2024-01-27T01:06:04;1.10;99.90
34985;DHT22;21190;58.750;17.004;2024-01-27T01:08:32;1.10;99.90
34985;DHT22;21190;58.750;17.004;2024-01-27T01:10:59;1.10;99.90
34985;DHT22;21190;58.750;17.004;2024-01-27T01:13:26;1.10;99.90
34985;DHT22;21190;58.750;17.004;2024-01-27T01:15:53;1.20;99.90
34985;DHT22;21190;58.750;17.004;2024-01-27T01:18:21;1.10;99.90
34985;DHT22;21190;58.750;17.004;2024-01-27T01:20:48;1.20;99.90
34985;DHT22;21190;58.750;17.004;2024-01-27T01:23:15;1.20;99.90
34985;DHT22;21190;58.750;17.004;2024-01-27T01:25:42;1.20;99.90
34985;DHT22;21190;58.750;17.004;2024-01-27T01:28:11;1.20;99.90
34985;DHT22;21190;58.750;17.004;2024-01-27T01:30:38;1.10;99.90
34985;DHT22;21190;58.750;17.004;2024-01-27T01:33:05;1.20;99.90
34985;DHT22;21190;58.750;17.004;2024-01-27T01:35:32;1.20;99.90
34985;DHT22;21190;58.750;17.004;2024-01-27T01:38:00;1.20;99.90
34985;DHT22;21190;58.750;17.004;2024-01-27T01:40:27;1.20;99.90
34985;DHT22;21190;58.750;17.004;2024-01-27T01:42:54;1.20;99.90
34985;DHT22;21190;58.750;17.004;2024-01-27T01:45:21;1.20;99.90
34985;DHT22;21190;58.750;17.004;2024-01-27T01:47:49;1.20;99.90
34985;DHT22;21190;58.750;17.004;2024-01-27T01:50:17;1.20;99.90
34985;DHT22;21190;58.750;17.004;2024-01-27T01:52:47;1.20;99.90
34985;DHT22;21190;58.750;17.004;2024-01-27T01:55:14;1.20;99.90
34985;DHT22;21190;58.750;17.004;2024-01-27T01:57:43;1.20;99.90
34985;DHT22;21190;58.750;17.004;2024-01-27T02:00:11;1.30;99.90
34985;DHT22;21190;58.750;17.004;2024-01-27T02:02:39;1.20;99.90
34985;DHT22;21190;58.750;17.004;2024-01-27T02:05:06;1.20;99.90
34985;DHT22;21190;58.750;17.004;2024-01-27T02:07:36;1.20;99.90
34985;DHT22;21190;58.750;17.004;2024-01-27T02:10:04;1.20;99.90
34985;DHT22;21190;58.750;17.004;2024-01-27T02:12:31;1.20;99.90
34985;DHT22;21190;58.750;17.004;2024-01-27T02:14:58;1.20;99.90
34985;DHT22;21190;58.750;17.004;2024-01-27T02:17:26;1.20;99.90
34985;DHT22;21190;58.750;17.004;2024-01-27T02:19:53;1.20;99.90
34985;DHT22;21190;58.750;17.004;2024-01-27T02:22:20;1.30;99.90
34985;DHT22;21190;58.750;17.004;2024-01-27T02:24:47;1.30;99.90
34985;DHT22;21190;58.750;17.004;2024-01-27T02:27:14;1.20;99.90
34985;DHT22;21190;58.750;17.004;2024-01-27T02:29:42;1.20;99.90
34985;DHT22;21190;58.750;17.004;2024-01-27T02:32:09;1.20;99.90
34985;DHT22;21190;58.750;17.004;2024-01-27T02:34:36;1.20;99.90
34985;DHT22;21190;58.750;17.004;2024-01-27T02:37:03;1.20;99.90
34985;DHT22;21190;58.750;17.004;2024-01-27T02:39:32;1.20;99.90
34985;DHT22;21190;58.750;17.004;2024-01-27T02:41:59;1.20;99.90
34985;DHT22;21190;58.750;17.004;2024-01-27T02:44:26;1.20;99.90
34985;DHT22;21190;58.750;17.004;2024-01-27T02:46:53;1.10;99.90
34985;DHT22;21190;58.750;17.004;2024-01-27T02:49:21;1.20;99.90
34985;DHT22;21190;58.750;17.004;2024-01-27T02:51:48;1.10;99.90
34985;DHT22;21190;58.750;17.004;2024-01-27T02:54:16;1.10;99.90
34985;DHT22;21190;58.750;17.004;2024-01-27T02:56:43;1.10;99.90
34985;DHT22;21190;58.750;17.004;2024-01-27T02:59:11;1.10;99.90
34985;DHT22;21190;58.750;17.004;2024-01-27T03:01:39;1.10;99.90
34985;DHT22;21190;58.750;17.004;2024-01-27T03:04:06;1.00;99.90
34985;DHT22;21190;58.750;17.004;2024-01-27T03:06:33;1.10;99.90
34985;DHT22;21190;58.750;17.004;2024-01-27T03:09:00;1.00;99.90
34985;DHT22;21190;58.750;17.004;2024-01-27T03:11:28;1.00;99.90
34985;DHT22;21190;58.750;17.004;2024-01-27T03:13:55;1.00;99.90
34985;DHT22;21190;58.750;17.004;2024-01-27T03:16:22;1.00;99.90
34985;DHT22;21190;58.750;17.004;2024-01-27T03:18:52;1.00;99.90
34985;DHT22;21190;58.750;17.004;2024-01-27T03:21:22;1.00;99.90
34985;DHT22;21190;58.750;17.004;2024-01-27T03:23:49;1.00;99.90
34985;DHT22;21190;58.750;17.004;2024-01-27T03:26:16;0.90;99.90
34985;DHT22;21190;58.750;17.004;2024-01-27T03:28:44;1.00;99.90
34985;DHT22;21190;58.750;17.004;2024-01-27T03:31:11;0.90;99.90
34985;DHT22;21190;58.750;17.004;2024-01-27T03:33:38;0.90;99.90
34985;DHT22;21190;58.750;17.004;2024-01-27T03:36:09;0.90;99.90
34985;DHT22;21190;58.750;17.004;2024-01-27T03:38:38;0.90;99.90
34985;DHT22;21190;58.750;17.004;2024-01-27T03:41:06;0.90;99.90
34985;DHT22;21190;58.750;17.004;2024-01-27T03:43:34;0.90;99.90
34985;DHT22;21190;58.750;17.004;2024-01-27T03:46:01;0.80;99.90
34985;DHT22;21190;58.750;17.004;2024-01-27T03:48:28;0.80;99.90
34985;DHT22;21190;58.750;17.004;2024-01-27T03:50:56;0.80;99.90
34985;DHT22;21190;58.750;17.004;2024-01-27T03:53:23;0.80;99.90
34985;DHT22;21190;58.750;17.004;2024-01-27T03:55:50;0.70;99.90
34985;DHT22;21190;58.750;17.004;2024-01-27T03:58:18;0.70;99.90
34985;DHT22;21190;58.750;17.004;2024-01-27T04:00:46;0.70;99.90
34985;DHT22;21190;58.750;17.004;2024-01-27T04:03:13;0.70;99.90
34985;DHT22;21190;58.750;17.004;2024-01-27T04:05:41;0.70;99.90
34985;DHT22;21190;58.750;17.004;2024-01-27T04:08:08;0.60;99.90
34985;DHT22;21190;58.750;17.004;2024-01-27T04:10:37;0.60;99.90
34985;DHT22;21190;58.750;17.004;2024-01-27T04:13:04;0.60;99.90
34985;DHT22;21190;58.750;17.004;2024-01-27T04:15:34;0.60;99.90
34985;DHT22;21190;58.750;17.004;2024-01-27T04:18:06;0.60;99.90
34985;DHT22;21190;58.750;17.004;2024-01-27T04:20:37;0.60;99.90
34985;DHT22;21190;58.750;17.004;2024-01-27T04:23:04;0.50;99.90
34985;DHT22;21190;58.750;17.004;2024-01-27T04:25:31;0.50;99.90
34985;DHT22;21190;58.750;17.004;2024-01-27T04:27:59;0.60;99.90
34985;DHT22;21190;58.750;17.004;2024-01-27T04:30:25;0.50;99.90
34985;DHT22;21190;58.750;17.004;2024-01-27T04:32:53;0.60;99.90
34985;DHT22;21190;58.750;17.004;2024-01-27T04:35:20;0.50;99.90
34985;DHT22;21190;58.750;17.004;2024-01-27T04:37:47;0.50;99.90
34985;DHT22;21190;58.750;17.004;2024-01-27T04:40:14;0.50;99.90
34985;DHT22;21190;58.750;17.004;2024-01-27T04:42:42;0.50;99.90
34985;DHT22;21190;58.750;17.004;2024-01-27T04:45:09;0.40;99.90
34985;DHT22;21190;58.750;17.004;2024-01-27T04:47:36;0.40;99.90
34985;DHT22;21190;58.750;17.004;2024-01-27T04:50:04;0.50;99.90
34985;DHT22;21190;58.750;17.004;2024-01-27T04:52:31;0.50;99.90
34985;DHT22;21190;58.750;17.004;2024-01-27T04:54:58;0.50;99.90
34985;DHT22;21190;58.750;17.004;2024-01-27T04:57:26;0.50;99.90
34985;DHT22;21190;58.750;17.004;2024-01-27T04:59:53;0.40;99.90
34985;DHT22;21190;58.750;17.004;2024-01-27T05:02:20;0.40;99.90
34985;DHT22;21190;58.750;17.004;2024-01-27T05:04:47;0.40;99.90
34985;DHT22;21190;58.750;17.004;2024-01-27T05:07:14;0.30;99.90
34985;DHT22;21190;58.750;17.004;2024-01-27T05:09:42;0.30;99.90
34985;DHT22;21190;58.750;17.004;2024-01-27T05:12:09;0.40;99.90
34985;DHT22;21190;58.750;17.004;2024-01-27T05:14:36;0.40;99.90
34985;DHT22;21190;58.750;17.004;2024-01-27T05:17:04;0.40;99.90
34985;DHT22;21190;58.750;17.004;2024-01-27T05:19:31;0.40;99.90
34985;DHT22;21190;58.750;17.004;2024-01-27T05:21:58;0.30;99.90
34985;DHT22;21190;58.750;17.004;2024-01-27T05:24:25;0.30;99.90
34985;DHT22;21190;58.750;17.004;2024-01-27T05:26:52;0.30;99.90
34985;DHT22;21190;58.750;17.004;2024-01-27T05:29:20;0.40;99.90
34985;DHT22;21190;58.750;17.004;2024-01-27T05:31:47;0.30;99.90
34985;DHT22;21190;58.750;17.004;2024-01-27T05:34:14;0.30;99.90
34985;DHT22;21190;58.750;17.004;2024-01-27T05:36:42;0.30;99.90
34985;DHT22;21190;58.750;17.004;2024-01-27T05:39:09;0.20;99.90
34985;DHT22;21190;58.750;17.004;2024-01-27T05:41:37;0.20;99.90
34985;DHT22;21190;58.750;17.004;2024-01-27T05:44:04;0.20;99.90
34985;DHT22;21190;58.750;17.004;2024-01-27T05:46:31;0.10;99.90
34985;DHT22;21190;58.750;17.004;2024-01-27T05:48:58;0.10;99.90
34985;DHT22;21190;58.750;17.004;2024-01-27T05:51:30;0.00;99.90
34985;DHT22;21190;58.750;17.004;2024-01-27T05:53:57;0.10;99.90
34985;DHT22;21190;58.750;17.004;2024-01-27T05:56:24;0.10;99.90
34985;DHT22;21190;58.750;17.004;2024-01-27T05:58:52;0.10;99.90
34985;DHT22;21190;58.750;17.004;2024-01-27T06:01:19;0.10;99.90
34985;DHT22;21190;58.750;17.004;2024-01-27T06:03:46;0.20;99.90
34985;DHT22;21190;58.750;17.004;2024-01-27T06:06:14;0.20;99.90
34985;DHT22;21190;58.750;17.004;2024-01-27T06:08:41;0.20;99.90
34985;DHT22;21190;58.750;17.004;2024-01-27T06:11:09;0.10;99.90
34985;DHT22;21190;58.750;17.004;2024-01-27T06:13:36;0.10;99.90
34985;DHT22;21190;58.750;17.004;2024-01-27T06:16:08;0.10;99.90
34985;DHT22;21190;58.750;17.004;2024-01-27T06:18:38;0.00;99.90
34985;DHT22;21190;58.750;17.004;2024-01-27T06:21:06;0.00;99.90
34985;DHT22;21190;58.750;17.004;2024-01-27T06:23:33;0.00;99.90
34985;DHT22;21190;58.750;17.004;2024-01-27T06:26:07;0.00;99.90
34985;DHT22;21190;58.750;17.004;2024-01-27T06:28:35;-0.10;99.90
34985;DHT22;21190;58.750;17.004;2024-01-27T06:31:03;-0.20;99.90
34985;DHT22;21190;58.750;17.004;2024-01-27T06:33:31;-0.20;99.90
34985;DHT22;21190;58.750;17.004;2024-01-27T06:35:58;-0.20;99.90
34985;DHT22;21190;58.750;17.004;2024-01-27T06:38:29;-0.30;99.90
34985;DHT22;21190;58.750;17.004;2024-01-27T06:40:58;-0.20;99.90
34985;DHT22;21190;58.750;17.004;2024-01-27T06:43:25;-0.20;99.90
34985;DHT22;21190;58.750;17.004;2024-01-27T06:45:52;-0.20;99.90
34985;DHT22;21190;58.750;17.004;2024-01-27T06:48:20;-0.30;99.90
34985;DHT22;21190;58.750;17.004;2024-01-27T06:50:47;-0.30;99.90
34985;DHT22;21190;58.750;17.004;2024-01-27T06:53:15;-0.40;99.90
34985;DHT22;21190;58.750;17.004;2024-01-27T06:55:42;-0.40;99.90
34985;DHT22;21190;58.750;17.004;2024-01-27T06:58:10;-0.40;99.90
34985;DHT22;21190;58.750;17.004;2024-01-27T07:00:37;-0.50;99.90
34985;DHT22;21190;58.750;17.004;2024-01-27T07:03:05;-0.40;99.90
34985;DHT22;21190;58.750;17.004;2024-01-27T07:05:34;-0.40;99.90
34985;DHT22;21190;58.750;17.004;2024-01-27T07:08:08;-0.50;99.90
34985;DHT22;21190;58.750;17.004;2024-01-27T07:10:35;-0.50;99.90
34985;DHT22;21190;58.750;17.004;2024-01-27T07:13:03;-0.40;99.90
34985;DHT22;21190;58.750;17.004;2024-01-27T07:15:30;-0.50;99.90
34985;DHT22;21190;58.750;17.004;2024-01-27T07:17:57;-0.50;99.90
34985;DHT22;21190;58.750;17.004;2024-01-27T07:20:25;-0.50;99.90
34985;DHT22;21190;58.750;17.004;2024-01-27T07:22:52;-0.50;99.90
34985;DHT22;21190;58.750;17.004;2024-01-27T07:25:19;-0.50;99.90
34985;DHT22;21190;58.750;17.004;2024-01-27T07:27:46;-0.50;99.90
34985;DHT22;21190;58.750;17.004;2024-01-27T07:30:14;-0.60;99.90
34985;DHT22;21190;58.750;17.004;2024-01-27T07:32:42;-0.60;99.90
34985;DHT22;21190;58.750;17.004;2024-01-27T07:35:11;-0.60;99.90
34985;DHT22;21190;58.750;17.004;2024-01-27T07:37:38;-0.60;99.90
34985;DHT22;21190;58.750;17.004;2024-01-27T07:40:06;-0.60;99.90
34985;DHT22;21190;58.750;17.004;2024-01-27T07:42:33;-0.60;99.90
34985;DHT22;21190;58.750;17.004;2024-01-27T07:45:00;-0.60;99.90
34985;DHT22;21190;58.750;17.004;2024-01-27T07:47:28;-0.60;99.90
34985;DHT22;21190;58.750;17.004;2024-01-27T07:49:55;-0.60;99.90
34985;DHT22;21190;58.750;17.004;2024-01-27T07:52:22;-0.50;99.90
34985;DHT22;21190;58.750;17.004;2024-01-27T07:54:49;-0.50;99.90
34985;DHT22;21190;58.750;17.004;2024-01-27T07:57:16;-0.50;99.90
34985;DHT22;21190;58.750;17.004;2024-01-27T07:59:44;-0.50;99.90
34985;DHT22;21190;58.750;17.004;2024-01-27T08:02:11;-0.50;99.90
34985;DHT22;21190;58.750;17.004;2024-01-27T08:04:38;-0.50;99.90
34985;DHT22;21190;58.750;17.004;2024-01-27T08:07:06;-0.50;99.90
34985;DHT22;21190;58.750;17.004;2024-01-27T08:09:37;-0.50;99.90
34985;DHT22;21190;58.750;17.004;2024-01-27T08:12:07;-0.50;99.90
34985;DHT22;21190;58.750;17.004;2024-01-27T08:14:35;-0.40;99.90
34985;DHT22;21190;58.750;17.004;2024-01-27T08:17:02;-0.40;99.90
34985;DHT22;21190;58.750;17.004;2024-01-27T08:19:30;-0.50;99.90
34985;DHT22;21190;58.750;17.004;2024-01-27T08:22:02;-0.40;99.90
34985;DHT22;21190;58.750;17.004;2024-01-27T08:24:30;-0.40;99.90
34985;DHT22;21190;58.750;17.004;2024-01-27T08:26:58;-0.40;99.90
34985;DHT22;21190;58.750;17.004;2024-01-27T08:29:25;-0.40;99.90
34985;DHT22;21190;58.750;17.004;2024-01-27T08:31:52;-0.40;99.90
34985;DHT22;21190;58.750;17.004;2024-01-27T08:34:19;-0.30;99.90
34985;DHT22;21190;58.750;17.004;2024-01-27T08:36:47;-0.30;99.90
34985;DHT22;21190;58.750;17.004;2024-01-27T08:39:15;-0.30;99.90
34985;DHT22;21190;58.750;17.004;2024-01-27T08:41:42;-0.30;99.90
34985;DHT22;21190;58.750;17.004;2024-01-27T08:44:10;-0.20;99.90
34985;DHT22;21190;58.750;17.004;2024-01-27T08:46:38;-0.30;99.90
34985;DHT22;21190;58.750;17.004;2024-01-27T08:49:05;-0.40;99.90
34985;DHT22;21190;58.750;17.004;2024-01-27T08:51:32;-0.40;99.90
34985;DHT22;21190;58.750;17.004;2024-01-27T08:54:02;-0.30;99.90
34985;DHT22;21190;58.750;17.004;2024-01-27T08:56:30;-0.30;99.90
34985;DHT22;21190;58.750;17.004;2024-01-27T08:58:57;-0.30;99.90
34985;DHT22;21190;58.750;17.004;2024-01-27T09:01:24;-0.30;99.90
34985;DHT22;21190;58.750;17.004;2024-01-27T09:03:51;-0.30;99.90
34985;DHT22;21190;58.750;17.004;2024-01-27T09:06:18;-0.40;99.90
34985;DHT22;21190;58.750;17.004;2024-01-27T09:08:46;-0.40;99.90
34985;DHT22;21190;58.750;17.004;2024-01-27T09:11:13;-0.40;99.90
34985;DHT22;21190;58.750;17.004;2024-01-27T09:13:40;-0.40;99.90
34985;DHT22;21190;58.750;17.004;2024-01-27T09:16:07;-0.40;99.90
34985;DHT22;21190;58.750;17.004;2024-01-27T09:18:39;-0.30;99.90
34985;DHT22;21190;58.750;17.004;2024-01-27T09:21:06;-0.30;99.90
34985;DHT22;21190;58.750;17.004;2024-01-27T09:23:33;-0.30;99.90
34985;DHT22;21190;58.750;17.004;2024-01-27T09:26:00;-0.30;99.90
34985;DHT22;21190;58.750;17.004;2024-01-27T09:28:27;-0.20;99.90
34985;DHT22;21190;58.750;17.004;2024-01-27T09:30:55;-0.10;99.90
34985;DHT22;21190;58.750;17.004;2024-01-27T09:33:22;-0.10;99.90
34985;DHT22;21190;58.750;17.004;2024-01-27T09:35:50;-0.10;99.90
34985;DHT22;21190;58.750;17.004;2024-01-27T09:38:17;-0.10;99.90
34985;DHT22;21190;58.750;17.004;2024-01-27T09:40:45;0.00;99.90
34985;DHT22;21190;58.750;17.004;2024-01-27T09:43:13;0.00;99.90
34985;DHT22;21190;58.750;17.004;2024-01-27T09:45:41;0.00;99.90
34985;DHT22;21190;58.750;17.004;2024-01-27T09:48:10;0.10;99.90
34985;DHT22;21190;58.750;17.004;2024-01-27T09:50:44;0.10;99.90
34985;DHT22;21190;58.750;17.004;2024-01-27T09:53:12;0.10;99.90
34985;DHT22;21190;58.750;17.004;2024-01-27T09:55:39;0.30;99.90
34985;DHT22;21190;58.750;17.004;2024-01-27T09:58:08;0.30;99.90
34985;DHT22;21190;58.750;17.004;2024-01-27T10:00:35;0.30;99.90
34985;DHT22;21190;58.750;17.004;2024-01-27T10:03:06;0.30;99.90
34985;DHT22;21190;58.750;17.004;2024-01-27T10:05:35;0.40;99.90
34985;DHT22;21190;58.750;17.004;2024-01-27T10:08:06;0.40;99.90
34985;DHT22;21190;58.750;17.004;2024-01-27T10:10:35;0.40;99.90
34985;DHT22;21190;58.750;17.004;2024-01-27T10:13:04;0.50;99.90
34985;DHT22;21190;58.750;17.004;2024-01-27T10:15:31;0.50;99.90
34985;DHT22;21190;58.750;17.004;2024-01-27T10:18:08;0.50;99.90
34985;DHT22;21190;58.750;17.004;2024-01-27T10:20:35;0.50;99.90
34985;DHT22;21190;58.750;17.004;2024-01-27T10:23:13;0.50;99.90
34985;DHT22;21190;58.750;17.004;2024-01-27T10:25:40;0.60;99.90
34985;DHT22;21190;58.750;17.004;2024-01-27T10:28:09;0.60;99.90
34985;DHT22;21190;58.750;17.004;2024-01-27T10:30:36;0.70;99.90
34985;DHT22;21190;58.750;17.004;2024-01-27T10:33:04;0.80;99.90
34985;DHT22;21190;58.750;17.004;2024-01-27T10:35:34;0.80;99.90
34985;DHT22;21190;58.750;17.004;2024-01-27T10:38:01;0.90;99.90
34985;DHT22;21190;58.750;17.004;2024-01-27T10:40:29;0.80;99.90
34985;DHT22;21190;58.750;17.004;2024-01-27T10:43:06;0.80;99.90
34985;DHT22;21190;58.750;17.004;2024-01-27T10:45:39;0.90;99.90
34985;DHT22;21190;58.750;17.004;2024-01-27T10:48:08;0.90;99.90
34985;DHT22;21190;58.750;17.004;2024-01-27T10:50:38;0.90;99.90
34985;DHT22;21190;58.750;17.004;2024-01-27T10:53:21;0.80;99.90
34985;DHT22;21190;58.750;17.004;2024-01-27T10:55:53;0.80;99.90
34985;DHT22;21190;58.750;17.004;2024-01-27T10:58:23;0.80;99.90
34985;DHT22;21190;58.750;17.004;2024-01-27T11:00:52;0.80;99.90
34985;DHT22;21190;58.750;17.004;2024-01-27T11:03:21;0.90;99.90
34985;DHT22;21190;58.750;17.004;2024-01-27T11:05:50;0.90;99.90
34985;DHT22;21190;58.750;17.004;2024-01-27T11:08:18;0.90;99.90
34985;DHT22;21190;58.750;17.004;2024-01-27T11:10:46;1.00;99.90
34985;DHT22;21190;58.750;17.004;2024-01-27T11:13:14;1.00;99.90
34985;DHT22;21190;58.750;17.004;2024-01-27T11:15:52;1.00;99.90
34985;DHT22;21190;58.750;17.004;2024-01-27T11:18:20;0.90;99.90
34985;DHT22;21190;58.750;17.004;2024-01-27T11:20:48;0.90;99.90
34985;DHT22;21190;58.750;17.004;2024-01-27T11:23:15;0.90;99.90
34985;DHT22;21190;58.750;17.004;2024-01-27T11:25:42;0.90;99.90
34985;DHT22;21190;58.750;17.004;2024-01-27T11:28:15;0.90;99.90
34985;DHT22;21190;58.750;17.004;2024-01-27T11:30:47;1.00;99.90
34985;DHT22;21190;58.750;17.004;2024-01-27T11:33:14;1.00;99.90
34985;DHT22;21190;58.750;17.004;2024-01-27T11:35:42;1.00;99.90
34985;DHT22;21190;58.750;17.004;2024-01-27T11:38:10;1.00;99.90
34985;DHT22;21190;58.750;17.004;2024-01-27T11:40:49;1.00;99.90
34985;DHT22;21190;58.750;17.004;2024-01-27T11:43:17;1.10;99.90
34985;DHT22;21190;58.750;17.004;2024-01-27T11:45:55;1.10;99.90
34985;DHT22;21190;58.750;17.004;2024-01-27T11:48:23;1.20;99.90
34985;DHT22;21190;58.750;17.004;2024-01-27T11:51:05;1.20;99.90
34985;DHT22;21190;58.750;17.004;2024-01-27T11:53:33;1.30;99.90
34985;DHT22;21190;58.750;17.004;2024-01-27T11:56:00;1.30;99.90
34985;DHT22;21190;58.750;17.004;2024-01-27T11:58:28;1.30;99.90
34985;DHT22;21190;58.750;17.004;2024-01-27T12:00:57;1.30;99.90
34985;DHT22;21190;58.750;17.004;2024-01-27T12:03:25;1.30;99.90
34985;DHT22;21190;58.750;17.004;2024-01-27T12:05:52;1.30;99.90
34985;DHT22;21190;58.750;17.004;2024-01-27T12:08:20;1.40;99.90
34985;DHT22;21190;58.750;17.004;2024-01-27T12:10:47;1.50;99.90
34985;DHT22;21190;58.750;17.004;2024-01-27T12:13:15;1.50;99.90
34985;DHT22;21190;58.750;17.004;2024-01-27T12:15:43;1.50;99.90
34985;DHT22;21190;58.750;17.004;2024-01-27T12:18:10;1.40;99.90
34985;DHT22;21190;58.750;17.004;2024-01-27T12:20:39;1.40;99.90
34985;DHT22;21190;58.750;17.004;2024-01-27T12:23:07;1.50;99.90
34985;DHT22;21190;58.750;17.004;2024-01-27T12:25:34;1.50;99.90
34985;DHT22;21190;58.750;17.004;2024-01-27T12:28:05;1.50;99.90
34985;DHT22;21190;58.750;17.004;2024-01-27T12:30:34;1.50;99.90
34985;DHT22;21190;58.750;17.004;2024-01-27T12:33:09;1.60;99.90
34985;DHT22;21190;58.750;17.004;2024-01-27T12:35:39;1.60;99.90
34985;DHT22;21190;58.750;17.004;2024-01-27T12:38:06;1.50;99.90
34985;DHT22;21190;58.750;17.004;2024-01-27T12:40:33;1.50;99.90
34985;DHT22;21190;58.750;17.004;2024-01-27T12:43:00;1.50;99.90
34985;DHT22;21190;58.750;17.004;2024-01-27T12:45:27;1.50;99.90
34985;DHT22;21190;58.750;17.004;2024-01-27T12:47:59;1.50;99.90
34985;DHT22;21190;58.750;17.004;2024-01-27T12:50:26;1.50;99.90
34985;DHT22;21190;58.750;17.004;2024-01-27T12:52:54;1.50;99.90
34985;DHT22;21190;58.750;17.004;2024-01-27T12:55:21;1.50;99.90
34985;DHT22;21190;58.750;17.004;2024-01-27T12:57:48;1.50;99.90
34985;DHT22;21190;58.750;17.004;2024-01-27T13:00:16;1.50;99.90
34985;DHT22;21190;58.750;17.004;2024-01-27T13:02:44;1.50;99.90
34985;DHT22;21190;58.750;17.004;2024-01-27T13:05:11;1.50;99.90
34985;DHT22;21190;58.750;17.004;2024-01-27T13:07:39;1.50;99.90
34985;DHT22;21190;58.750;17.004;2024-01-27T13:10:06;1.50;99.90
34985;DHT22;21190;58.750;17.004;2024-01-27T13:12:33;1.50;99.90
34985;DHT22;21190;58.750;17.004;2024-01-27T13:15:00;1.50;99.90
34985;DHT22;21190;58.750;17.004;2024-01-27T13:17:28;1.50;99.90
34985;DHT22;21190;58.750;17.004;2024-01-27T13:19:55;1.50;99.90
34985;DHT22;21190;58.750;17.004;2024-01-27T13:22:22;1.50;99.90
34985;DHT22;21190;58.750;17.004;2024-01-27T13:24:51;1.50;99.90
34985;DHT22;21190;58.750;17.004;2024-01-27T13:27:18;1.50;99.90
34985;DHT22;21190;58.750;17.004;2024-01-27T13:29:47;1.50;99.90
34985;DHT22;21190;58.750;17.004;2024-01-27T13:32:14;1.50;99.90
34985;DHT22;21190;58.750;17.004;2024-01-27T13:34:41;1.50;99.90
34985;DHT22;21190;58.750;17.004;2024-01-27T13:37:08;1.40;99.90
34985;DHT22;21190;58.750;17.004;2024-01-27T13:39:36;1.40;99.90
34985;DHT22;21190;58.750;17.004;2024-01-27T13:42:04;1.40;99.90
34985;DHT22;21190;58.750;17.004;2024-01-27T13:44:32;1.40;99.90
34985;DHT22;21190;58.750;17.004;2024-01-27T13:47:03;1.40;99.90
34985;DHT22;21190;58.750;17.004;2024-01-27T13:49:32;1.30;99.90
34985;DHT22;21190;58.750;17.004;2024-01-27T13:52:00;1.30;99.90
34985;DHT22;21190;58.750;17.004;2024-01-27T13:54:31;1.30;99.90
34985;DHT22;21190;58.750;17.004;2024-01-27T13:57:02;1.30;99.90
34985;DHT22;21190;58.750;17.004;2024-01-27T13:59:30;1.30;99.90
34985;DHT22;21190;58.750;17.004;2024-01-27T14:01:57;1.30;99.90
34985;DHT22;21190;58.750;17.004;2024-01-27T14:04:25;1.30;99.90
34985;DHT22;21190;58.750;17.004;2024-01-27T14:06:52;1.30;99.90
34985;DHT22;21190;58.750;17.004;2024-01-27T14:09:20;1.30;99.90
34985;DHT22;21190;58.750;17.004;2024-01-27T14:11:48;1.20;99.90
34985;DHT22;21190;58.750;17.004;2024-01-27T14:14:15;1.30;99.90
34985;DHT22;21190;58.750;17.004;2024-01-27T14:16:44;1.20;99.90
34985;DHT22;21190;58.750;17.004;2024-01-27T14:19:12;1.30;99.90
34985;DHT22;21190;58.750;17.004;2024-01-27T14:21:39;1.20;99.90
34985;DHT22;21190;58.750;17.004;2024-01-27T14:24:07;1.30;99.90
34985;DHT22;21190;58.750;17.004;2024-01-27T14:26:34;1.30;99.90
34985;DHT22;21190;58.750;17.004;2024-01-27T14:29:02;1.20;99.90
34985;DHT22;21190;58.750;17.004;2024-01-27T14:31:29;1.20;99.90
34985;DHT22;21190;58.750;17.004;2024-01-27T14:33:57;1.20;99.90
34985;DHT22;21190;58.750;17.004;2024-01-27T14:36:25;1.20;99.90
34985;DHT22;21190;58.750;17.004;2024-01-27T14:38:53;1.20;99.90
34985;DHT22;21190;58.750;17.004;2024-01-27T14:41:20;1.20;99.90
34985;DHT22;21190;58.750;17.004;2024-01-27T14:43:48;1.20;99.90
34985;DHT22;21190;58.750;17.004;2024-01-27T14:46:17;1.20;99.90
34985;DHT22;21190;58.750;17.004;2024-01-27T14:48:45;1.10;99.90
34985;DHT22;21190;58.750;17.004;2024-01-27T14:51:13;1.10;99.90
34985;DHT22;21190;58.750;17.004;2024-01-27T14:53:40;1.00;99.90
34985;DHT22;21190;58.750;17.004;2024-01-27T14:56:08;1.00;99.90
34985;DHT22;21190;58.750;17.004;2024-01-27T14:58:35;0.90;99.90
34985;DHT22;21190;58.750;17.004;2024-01-27T15:01:02;0.90;99.90
34985;DHT22;21190;58.750;17.004;2024-01-27T15:03:30;1.00;99.90
34985;DHT22;21190;58.750;17.004;2024-01-27T15:05:57;0.90;99.90
34985;DHT22;21190;58.750;17.004;2024-01-27T15:08:26;0.90;99.90
34985;DHT22;21190;58.750;17.004;2024-01-27T15:10:54;0.90;99.90
34985;DHT22;21190;58.750;17.004;2024-01-27T15:13:21;0.90;99.90
34985;DHT22;21190;58.750;17.004;2024-01-27T15:15:51;0.90;99.90
34985;DHT22;21190;58.750;17.004;2024-01-27T15:18:18;1.00;99.90
34985;DHT22;21190;58.750;17.004;2024-01-27T15:20:46;1.00;99.90
34985;DHT22;21190;58.750;17.004;2024-01-27T15:23:13;1.00;99.90
34985;DHT22;21190;58.750;17.004;2024-01-27T15:25:40;1.00;99.90
34985;DHT22;21190;58.750;17.004;2024-01-27T15:28:08;1.00;99.90
34985;DHT22;21190;58.750;17.004;2024-01-27T15:30:35;1.00;99.90
34985;DHT22;21190;58.750;17.004;2024-01-27T15:33:02;1.00;99.90